Flight Track Log - Related Links

Times and Time Zones

All times are in EST time to prevent confusion due to time zone crossing. See the DAL4969 flight status page for this flight to view local times or setup timezone preferences in your user account.

Time Position Orientation Groundspeed Altitude Reporting Facility
EST Latitude Longitude Course Direction KTS MPH feet Rate Location/Type
Sat 08:35:33 PM 42.2061 -83.3672 210° Southwest 143 165 1,300  Level Cleveland Center
Sat 08:36:49 PM 42.1661 -83.3981 210° Southwest 174 200 3,300 1,971 Climbing Cleveland Center
Sat 08:37:50 PM 42.1000 -83.4439 207° Southwest 221 254 5,800 2,531 Climbing Cleveland Center
Sat 08:37:53 PM 42.0903 -83.4522 212° Southwest 252 290 6,000 2,897 Climbing Cleveland Center
Sat 08:38:48 PM 42.0344 -83.4975 211° Southwest 256 295 8,600 2,746 Climbing Cleveland Center
Sat 08:38:52 PM 42.0367 -83.4950 40° Northeast 254 292 8,700 2,308 Climbing Cleveland Center
Sat 08:39:53 PM 41.9758 -83.5458 212° Southwest 256 295 11,100 1,951 Climbing Cleveland Center
Sat 08:40:55 PM 41.9039 -83.6058 212° Southwest 287 330 12,700 1,756 Climbing Cleveland Center
Sat 08:41:56 PM 41.8292 -83.6686 212° Southwest 310 357 14,700 1,820 Climbing Cleveland Center
Sat 08:42:57 PM 41.7506 -83.7333 212° Southwest 326 375 16,400 1,512 Climbing Cleveland Center
Sat 08:43:59 PM 41.6669 -83.8042 212° Southwest 346 398 17,800 1,415 Climbing Cleveland Center
Sat 08:45:00 PM 41.5789 -83.8722 210° Southwest 362 417 19,300 1,475 Climbing Cleveland Center
Sat 08:46:01 PM 41.4883 -83.9436 211° Southwest 375 432 20,800 1,463 Climbing Cleveland Center
Sat 08:47:03 PM 41.3967 -84.0161 211° Southwest 383 441 22,300 1,610 Climbing Cleveland Center
Sat 08:48:04 PM 41.2853 -84.1031 210° Southwest 384 442 24,100 1,672 Climbing Cleveland Center
Sat 08:49:05 PM 41.2292 -84.2114 235° Southwest 381 438 25,700 1,525 Climbing Cleveland Center
Sat 08:50:06 PM 41.1978 -84.3369 252° West 359 413 27,200 1,610 Climbing Cleveland Center
Sat 08:51:08 PM 41.1686 -84.4569 252° West 347 399 29,000 1,707 Climbing Cleveland Center
Sat 08:52:09 PM 41.1392 -84.5703 251° West 330 380 30,700 1,473 Climbing Cleveland Center
Sat 08:52:58 PM 41.1197 -84.6467 251° West 314 361 31,700 1,395 Climbing Indianapolis Center
Sat 08:53:35 PM 41.1000 -84.7217 251° West 312 359 32,700 1,163 Climbing Chicago Center
Sat 08:54:36 PM 41.0672 -84.8222 247° West 301 346 33,600 780 Climbing Chicago Center
Sat 08:55:38 PM 41.0303 -84.9219 244° Southwest 301 346 34,300 732 Climbing Chicago Center
Sat 08:56:39 PM 40.9947 -85.0231 245° Southwest 302 348 35,100 738 Climbing Chicago Center
Sat 08:57:40 PM 40.9583 -85.1247 245° Southwest 304 350 35,800 439 Climbing Chicago Center
Sat 08:58:42 PM 40.9139 -85.2500 245° Southwest 309 356 36,000 97 Climbing Chicago Center
Sat 08:59:44 PM 40.8742 -85.3578 244° Southwest 319 367 36,000 293 Level Chicago Center
Sat 09:00:45 PM 40.8342 -85.4717 245° Southwest 335 386 36,600 683 Climbing Chicago Center
Sat 09:01:47 PM 40.7942 -85.5819 244° Southwest 336 387 37,400 683 Climbing Chicago Center
Sat 09:02:48 PM 40.7550 -85.6878 244° Southwest 328 377 38,000 293 Climbing Chicago Center
Sat 09:03:50 PM 40.7169 -85.7936 245° Southwest 322 371 38,000  Level Chicago Center
Sat 09:04:51 PM 40.6761 -85.9042 244° Southwest 327 376 38,000  Level Chicago Center
Sat 09:05:52 PM 40.6358 -86.0158 245° Southwest 337 388 38,000  Level Chicago Center
Sat 09:06:54 PM 40.5961 -86.1283 245° Southwest 340 391 38,000  Level Chicago Center
Sat 09:07:55 PM 40.5450 -86.2653 244° Southwest 348 400 38,000  Level Chicago Center
Sat 09:08:57 PM 40.5011 -86.3806 243° Southwest 352 405 38,000  Level Chicago Center
Sat 09:09:58 PM 40.4594 -86.4956 245° Southwest 353 406 38,000  Level Chicago Center
Sat 09:11:00 PM 40.4172 -86.6075 244° Southwest 348 400 38,000  Level Chicago Center
Sat 09:12:01 PM 40.3744 -86.7186 243° Southwest 345 397 38,000  Level Chicago Center
Sat 09:13:03 PM 40.3319 -86.8314 244° Southwest 345 397 38,000  Level Chicago Center
Sat 09:14:04 PM 40.2900 -86.9431 244° Southwest 345 397 38,000  Level Chicago Center
Sat 09:15:05 PM 40.2389 -87.0772 244° Southwest 345 397 38,000  Level Chicago Center
Sat 09:16:07 PM 40.1961 -87.1889 243° Southwest 347 399 38,000  Level Chicago Center
Sat 09:17:08 PM 40.1533 -87.2997 243° Southwest 346 398 38,000  Level Chicago Center
Sat 09:18:10 PM 40.1103 -87.4122 243° Southwest 347 399 38,000  Level Chicago Center
Sat 09:19:11 PM 40.0667 -87.5239 243° Southwest 348 400 38,000  Level Chicago Center
Sat 09:20:13 PM 40.0239 -87.6361 244° Southwest 348 400 38,000  Level Chicago Center
Sat 09:21:14 PM 39.9800 -87.7478 243° Southwest 349 402 38,000  Level Chicago Center
Sat 09:22:16 PM 39.9264 -87.8836 243° Southwest 353 406 38,000  Level Chicago Center
Sat 09:23:17 PM 39.8831 -87.9956 243° Southwest 350 403 38,000  Level Chicago Center
Sat 09:24:31 PM 39.8269 -88.1308 242° Southwest 353 406 38,000  Level Indianapolis Center
Sat 09:25:06 PM 39.8053 -88.1856 243° Southwest 348 400 38,000  Level Kansas City Center
Sat 09:26:08 PM 39.7608 -88.3011 243° Southwest 352 405 38,000  Level Kansas City Center
Sat 09:27:09 PM 39.7069 -88.4369 243° Southwest 352 405 38,000  Level Kansas City Center
Sat 09:28:10 PM 39.6597 -88.5506 242° Southwest 352 405 38,000  Level Kansas City Center
Sat 09:29:11 PM 39.6153 -88.6636 243° Southwest 354 407 38,000  Level Kansas City Center
Sat 09:30:13 PM 39.5692 -88.7789 243° Southwest 357 411 38,000  Level Kansas City Center
Sat 09:31:14 PM 39.5236 -88.8925 243° Southwest 356 410 38,000  Level Kansas City Center
Sat 09:32:15 PM 39.4769 -89.0075 242° Southwest 359 413 38,000  Level Kansas City Center
Sat 09:33:16 PM 39.4300 -89.1203 242° Southwest 357 411 38,000  Level Kansas City Center
Sat 09:34:17 PM 39.3800 -89.2417 242° Southwest 360 414 38,000  Level Kansas City Center
Sat 09:35:19 PM 39.3333 -89.3550 242° Southwest 359 413 38,000  Level Kansas City Center
Sat 09:36:20 PM 39.2869 -89.4692 242° Southwest 360 414 38,000  Level Kansas City Center
Sat 09:37:21 PM 39.2394 -89.5831 242° Southwest 361 415 38,000  Level Kansas City Center
Sat 09:38:22 PM 39.1922 -89.6972 242° Southwest 361 415 38,000  Level Kansas City Center
Sat 09:39:23 PM 39.1431 -89.8106 241° Southwest 364 419 38,000  Level Kansas City Center
Sat 09:40:24 PM 39.0961 -89.9244 242° Southwest 363 418 38,000  Level Kansas City Center
Sat 09:41:26 PM 39.0397 -90.0628 242° Southwest 365 420 38,000  Level Kansas City Center
Sat 09:42:27 PM 38.9911 -90.1775 241° Southwest 367 422 38,000  Level Kansas City Center
Sat 09:43:28 PM 38.9433 -90.2914 242° Southwest 367 422 38,000  Level Kansas City Center
Sat 09:44:29 PM 38.8989 -90.3961 241° Southwest 364 419 38,000  Level Kansas City Center
Sat 09:45:30 PM 38.8511 -90.5125 242° Southwest 366 421 38,000  Level Kansas City Center
Sat 09:46:31 PM 38.7772 -90.6447 234° Southwest 371 427 38,000  Level Kansas City Center
Sat 09:47:32 PM 38.7308 -90.7361 237° Southwest 373 429 38,000  Level Kansas City Center
Sat 09:48:33 PM 38.6619 -90.8733 237° Southwest 380 437 38,000  Level Kansas City Center
Sat 09:49:35 PM 38.6039 -90.9861 237° Southwest 381 438 38,000  Level Kansas City Center
Sat 09:50:36 PM 38.5461 -91.0989 237° Southwest 381 438 38,000  Level Kansas City Center
Sat 09:51:37 PM 38.4872 -91.2131 237° Southwest 383 441 38,000  Level Kansas City Center
Sat 09:52:38 PM 38.4353 -91.3331 241° Southwest 391 450 38,000  Level Kansas City Center
Sat 09:53:39 PM 38.3889 -91.4603 245° Southwest 391 450 38,000  Level Kansas City Center
Sat 09:54:40 PM 38.3400 -91.5853 244° Southwest 393 452 38,000  Level Kansas City Center
Sat 09:55:41 PM 38.2933 -91.7094 244° Southwest 390 449 38,000  Level Kansas City Center
Sat 09:56:42 PM 38.2450 -91.8342 244° Southwest 391 450 38,000  Level Kansas City Center
Sat 09:57:44 PM 38.1961 -91.9597 244° Southwest 395 455 38,000  Level Kansas City Center
Sat 09:58:45 PM 38.1394 -92.1031 243° Southwest 396 456 38,000  Level Kansas City Center
Sat 09:59:46 PM 38.0903 -92.2283 244° Southwest 401 461 38,000  Level Kansas City Center
Sat 10:00:47 PM 38.0397 -92.3550 243° Southwest 402 463 38,000  Level Kansas City Center
Sat 10:01:48 PM 37.9908 -92.4814 244° Southwest 403 464 38,000  Level Kansas City Center
Sat 10:02:49 PM 37.9406 -92.6061 243° Southwest 401 461 38,000  Level Kansas City Center
Sat 10:03:50 PM 37.8903 -92.7331 243° Southwest 402 463 38,000  Level Kansas City Center
Sat 10:04:51 PM 37.8414 -92.8578 244° Southwest 399 459 38,000  Level Kansas City Center
Sat 10:05:52 PM 37.7897 -92.9856 243° Southwest 403 464 38,000  Level Kansas City Center
Sat 10:06:53 PM 37.7389 -93.1150 244° Southwest 407 468 38,000  Level Kansas City Center
Sat 10:07:54 PM 37.6864 -93.2433 243° Southwest 409 471 38,000  Level Kansas City Center
Sat 10:08:55 PM 37.6347 -93.3733 243° Southwest 412 474 38,000  Level Kansas City Center
Sat 10:09:56 PM 37.5711 -93.5283 243° Southwest 414 476 38,000  Level Kansas City Center
Sat 10:10:57 PM 37.5181 -93.6583 243° Southwest 416 479 38,000  Level Kansas City Center
Sat 10:11:58 PM 37.4656 -93.7872 243° Southwest 414 476 38,000  Level Kansas City Center
Sat 10:12:59 PM 37.4117 -93.9172 242° Southwest 418 481 38,000  Level Kansas City Center
Sat 10:14:00 PM 37.3572 -94.0478 242° Southwest 419 482 38,000  Level Kansas City Center
Sat 10:15:01 PM 37.3017 -94.1839 243° Southwest 418 481 38,000  Level Kansas City Center
Sat 10:16:02 PM 37.2467 -94.3144 242° Southwest 421 484 38,000  Level Kansas City Center
Sat 10:17:03 PM 37.1925 -94.4447 242° Southwest 422 486 38,000  Level Kansas City Center
Sat 10:18:04 PM 37.1372 -94.5753 242° Southwest 422 486 38,000  Level Kansas City Center
Sat 10:19:05 PM 37.0825 -94.7067 242° Southwest 425 489 38,000  Level Kansas City Center
Sat 10:20:06 PM 37.0264 -94.8361 242° Southwest 424 488 38,000  Level Kansas City Center
Sat 10:21:07 PM 36.9708 -94.9686 242° Southwest 427 491 38,000  Level Kansas City Center
Sat 10:22:08 PM 36.9156 -95.0986 242° Southwest 426 490 38,000  Level Kansas City Center
Sat 10:23:09 PM 36.8592 -95.2303 242° Southwest 429 494 38,000  Level Kansas City Center
Sat 10:24:10 PM 36.8036 -95.3603 242° Southwest 428 493 38,000  Level Kansas City Center
Sat 10:25:11 PM 36.7467 -95.4903 241° Southwest 429 494 38,000  Level Kansas City Center
Sat 10:26:12 PM 36.6903 -95.6208 242° Southwest 430 495 38,000 -49 Level Kansas City Center
Sat 10:27:13 PM 36.6217 -95.7778 241° Southwest 433 498 37,900 -295 Descending Kansas City Center
Sat 10:28:14 PM 36.5639 -95.9108 242° Southwest 438 504 37,400 -443 Descending Kansas City Center
Sat 10:29:15 PM 36.5042 -96.0472 241° Southwest 447 514 37,000 -197 Descending Kansas City Center
Sat 10:30:16 PM 36.4439 -96.1833 241° Southwest 451 519 37,000  Level Kansas City Center
Sat 10:31:17 PM 36.3836 -96.3189 241° Southwest 450 518 37,000  Level Kansas City Center
Sat 10:32:18 PM 36.3225 -96.4542 241° Southwest 450 518 37,000 -1,339 Level Kansas City Center
Sat 10:33:18 PM 36.2622 -96.5914 241° Southwest 452 520 34,300 -3,322 Descending Kansas City Center
Sat 10:34:19 PM 36.1992 -96.7300 241° Southwest 458 527 30,300 -3,984 Descending Kansas City Center
Sat 10:35:20 PM 36.1364 -96.8706 241° Southwest 459 528 26,200 -3,984 Descending Kansas City Center
Sat 10:36:21 PM 36.0775 -97.0022 241° Southwest 446 513 22,200 -3,934 Descending Kansas City Center
Sat 10:37:22 PM 36.0192 -97.1294 240° Southwest 436 502 18,200 -3,836 Descending Kansas City Center
Sat 10:38:23 PM 35.9633 -97.2525 241° Southwest 426 490 14,400 -3,541 Descending Kansas City Center
Sat 10:39:24 PM 35.9033 -97.3931 242° Southwest 399 459 11,000 -2,066 Descending Kansas City Center
Sat 10:40:25 PM 35.8522 -97.4772 233° Southwest 346 398 10,200 -1,180 Descending Kansas City Center
Sat 10:41:26 PM 35.7814 -97.5214 207° Southwest 295 339 8,600 -1,672 Descending Kansas City Center
Sat 10:42:27 PM 35.7133 -97.5592 204° Southwest 278 320 6,800 -1,770 Descending Kansas City Center
Sat 10:43:28 PM 35.6467 -97.5914 201° Southwest 266 306 5,000 -1,475 Descending Kansas City Center
Sat 10:44:29 PM 35.5731 -97.5897 179° South 239 275 3,800 -1,086 Descending Fort Worth Center
Sat 10:45:13 PM 35.5328 -97.5897 180° South 205 236 3,100 -885 Descending Fort Worth Center
Sat 10:45:30 PM 35.5161 -97.5889 178° South 209 241 2,900 -300 Descending Fort Worth Center
Sat 10:46:13 PM 35.4822 -97.5906 182° South 146 168 2,800 -200 Descending Fort Worth Center
Sat 10:46:30 PM 35.4747 -97.5889 170° South 142 163 2,700 -590 Descending Fort Worth Center
Sat 10:47:14 PM 35.4464 -97.5892 180° South 119 137 2,200 -689 Descending Fort Worth Center
Sat 10:47:31 PM 35.4364 -97.5894 181° South 129 148 2,000 -590 Descending Fort Worth Center
Sat 10:48:15 PM 35.4147 -97.5894 180° South 114 131 1,600 -492 Descending Fort Worth Center
Sat 10:48:32 PM 35.4111 -97.5908 197° South 120 138 1,500 -353 Descending Fort Worth Center
Sat 10:50:00 PM 35.3931 -97.6008 195° South  Level Estimated

Login

Don't have an account? Register now (free) for customized features, flight alerts, and more!